Time;durP1;ratioP1;P1;durP2;ratioP2;P2;SDS_P1;SDS_P2;PMS_P1;PMS_P2;Temp;Humidity;BMP_temperature;BMP_pressure;BME280_temperature;BME280_humidity;BME280_pressure;Samples;Min_cycle;Max_cycle;Signal;HPM_P1;HPM_P2
2021/10/25 00:03:34;;;;;;;16.30;6.43;;;;;;;;;;8227472;28;20483;-71
2021/10/25 00:07:40;;;;;;;22.23;6.38;;;;;;;;;;8249766;28;20071;-71
2021/10/25 00:11:45;;;;;;;13.30;5.63;;;;;;;;;;8225074;28;20356;-70
2021/10/25 00:15:50;;;;;;;11.02;5.13;;;;;;;;;;8257452;28;20476;-70
2021/10/25 00:19:56;;;;;;;11.73;5.38;;;;;;;;;;8240394;28;20472;-71
2021/10/25 00:24:01;;;;;;;120.25;39.75;;;;;;;;;;8259051;28;20470;-70
2021/10/25 00:28:06;;;;;;;47.90;17.52;;;;;;;;;;8240197;28;20456;-70
2021/10/25 00:32:12;;;;;;;26.80;9.52;;;;;;;;;;8257415;28;20538;-71
2021/10/25 00:36:17;;;;;;;43.63;18.23;;;;;;;;;;8224257;28;20067;-70
2021/10/25 00:40:23;;;;;;;18.77;7.70;;;;;;;;;;8239404;28;20367;-70
2021/10/25 00:44:31;;;;;;;18.80;9.23;;;;;;;;;;8257931;28;20352;-70
2021/10/25 00:48:38;;;;;;;19.88;8.90;;;;;;;;;;8240052;28;20044;-71
2021/10/25 00:52:45;;;;;;;16.95;7.30;;;;;;;;;;8257311;28;20497;-70
2021/10/25 00:56:51;;;;;;;16.70;6.63;;;;;;;;;;8239410;28;20356;-71
2021/10/25 01:00:56;;;;;;;13.85;5.15;;;;;;;;;;8256524;28;20357;-70
2021/10/25 01:05:02;;;;;;;12.15;5.40;;;;;;;;;;8239679;28;20056;-70
2021/10/25 01:09:08;;;;;;;17.65;6.07;;;;;;;;;;8240833;28;20479;-71
2021/10/25 01:13:14;;;;;;;19.58;5.95;;;;;;;;;;8223373;28;20486;-70
2021/10/25 01:17:19;;;;;;;15.77;6.03;;;;;;;;;;8256642;28;20498;-71
2021/10/25 01:21:25;;;;;;;15.15;6.72;;;;;;;;;;8222888;28;20506;-71
2021/10/25 01:25:30;;;;;;;21.30;5.47;;;;;;;;;;8239144;28;20431;-70
2021/10/25 01:29:37;;;;;;;17.90;5.72;;;;;;;;;;8239298;28;20471;-70
2021/10/25 01:33:51;;;;;;;19.05;5.38;;;;;;;;;;8241074;28;20444;-70
2021/10/25 01:38:02;;;;;;;14.75;5.25;;;;;;;;;;8243998;28;20494;-70
2021/10/25 01:42:07;;;;;;;14.48;6.03;;;;;;;;;;8245226;28;20049;-71
2021/10/25 01:46:13;;;;;;;13.52;5.40;;;;;;;;;;8244771;28;20464;-70
2021/10/25 01:50:18;;;;;;;14.40;5.40;;;;;;;;;;8244243;28;20349;-70
2021/10/25 01:54:24;;;;;;;13.75;5.90;;;;;;;;;;8260886;28;20378;-70
2021/10/25 01:58:30;;;;;;;17.25;5.35;;;;;;;;;;8261310;28;20472;-70
2021/10/25 02:02:38;;;;;;;12.52;6.53;;;;;;;;;;8229202;28;20342;-70
2021/10/25 02:07:02;;;;;;;18.83;4.95;;;;;;;;;;8243925;28;20452;-70
2021/10/25 02:11:07;;;;;;;41.40;8.60;;;;;;;;;;8212630;28;20475;-70
2021/10/25 02:15:20;;;;;;;53.17;10.70;;;;;;;;;;8227409;28;20476;-70
2021/10/25 02:19:28;;;;;;;;;;;;;;;;;;8212382;28;20472;-70
2021/10/25 02:23:46;;;;;;;43.00;10.30;;;;;;;;;;8228379;28;20304;-70
2021/10/25 02:27:52;;;;;;;71.13;13.85;;;;;;;;;;8226455;28;20357;-72
2021/10/25 02:31:57;;;;;;;41.28;10.98;;;;;;;;;;8227001;28;20060;-70
2021/10/25 02:36:05;;;;;;;24.15;7.78;;;;;;;;;;8227131;28;20472;-70
2021/10/25 02:40:15;;;;;;;18.23;6.75;;;;;;;;;;8227207;28;20365;-70
2021/10/25 02:44:21;;;;;;;18.92;7.07;;;;;;;;;;8227683;28;20049;-70
2021/10/25 02:48:28;;;;;;;27.23;8.43;;;;;;;;;;8226506;28;20345;-70
2021/10/25 02:52:39;;;;;;;14.38;5.43;;;;;;;;;;8228635;28;20491;-70
2021/10/25 02:56:45;;;;;;;12.80;5.28;;;;;;;;;;8225809;28;20042;-70
2021/10/25 03:00:50;;;;;;;13.93;5.97;;;;;;;;;;8227163;28;20381;-70
2021/10/25 03:04:55;;;;;;;17.48;5.00;;;;;;;;;;8209314;28;20486;-70
2021/10/25 03:09:01;;;;;;;14.48;5.80;;;;;;;;;;8226384;28;20571;-70
2021/10/25 03:13:10;;;;;;;11.25;5.07;;;;;;;;;;8209711;28;20372;-71
2021/10/25 03:17:16;;;;;;;10.98;4.60;;;;;;;;;;8226092;28;20457;-70
2021/10/25 03:21:33;;;;;;;9.25;4.22;;;;;;;;;;8225324;28;20452;-70
2021/10/25 03:25:40;;;;;;;13.43;4.75;;;;;;;;;;8224509;28;20111;-70
2021/10/25 03:29:45;;;;;;;11.93;4.78;;;;;;;;;;8224439;28;20354;-69
2021/10/25 03:33:51;;;;;;;12.40;5.28;;;;;;;;;;8226109;28;20465;-70
2021/10/25 03:38:00;;;;;;;16.02;5.93;;;;;;;;;;8225851;28;20494;-69
2021/10/25 03:42:11;;;;;;;13.20;4.90;;;;;;;;;;8226295;28;20493;-69
2021/10/25 03:46:28;;;;;;;11.15;4.38;;;;;;;;;;8209572;28;20037;-69
2021/10/25 03:50:37;;;;;;;15.53;5.50;;;;;;;;;;8224819;28;20053;-69
2021/10/25 03:54:57;;;;;;;14.88;5.32;;;;;;;;;;8176830;28;20362;-69
2021/10/25 04:26:45;;;;;;;17.80;6.55;;;;;;;;;;8223744;28;20061;-68
2021/10/25 04:30:55;;;;;;;18.33;6.35;;;;;;;;;;8224710;28;20367;-68
2021/10/25 04:35:05;;;;;;;21.67;5.47;;;;;;;;;;8210023;28;20337;-68
2021/10/25 04:39:36;;;;;;;19.92;7.10;;;;;;;;;;8219005;28;20461;-69
2021/10/25 04:43:47;;;;;;;28.42;10.25;;;;;;;;;;8224524;28;20396;-69
2021/10/25 04:47:54;;;;;;;19.70;6.90;;;;;;;;;;8222896;28;20473;-69
2021/10/25 04:52:19;;;;;;;15.98;5.65;;;;;;;;;;8213144;28;20412;-69
2021/10/25 04:56:25;;;;;;;19.55;6.88;;;;;;;;;;8223983;28;20514;-68
2021/10/25 05:00:30;;;;;;;14.55;5.82;;;;;;;;;;8226335;28;20045;-68
2021/10/25 05:04:35;;;;;;;16.88;6.47;;;;;;;;;;8225172;28;20380;-69
2021/10/25 05:08:41;;;;;;;22.20;6.15;;;;;;;;;;8223177;28;20352;-69
2021/10/25 05:12:46;;;;;;;18.17;5.68;;;;;;;;;;8225781;28;20366;-68
2021/10/25 05:16:51;;;;;;;20.33;6.35;;;;;;;;;;8228674;28;20483;-69
2021/10/25 05:20:56;;;;;;;16.63;6.78;;;;;;;;;;8229844;28;20364;-68
2021/10/25 05:25:05;;;;;;;28.20;8.73;;;;;;;;;;8125210;28;20424;-68
2021/10/25 05:29:09;;;;;;;266.58;105.03;;;;;;;;;;8185023;28;20453;-68
2021/10/25 05:33:17;;;;;;;25.07;11.93;;;;;;;;;;8228713;28;20437;-69
2021/10/25 05:37:24;;;;;;;24.63;9.23;;;;;;;;;;8184441;28;20071;-69
2021/10/25 05:41:29;;;;;;;21.60;9.40;;;;;;;;;;8172371;28;20465;-69
2021/10/25 05:45:35;;;;;;;18.38;7.60;;;;;;;;;;8154755;28;20365;-68
2021/10/25 05:49:41;;;;;;;19.92;8.25;;;;;;;;;;8214234;28;20488;-69
2021/10/25 05:53:48;;;;;;;34.55;11.60;;;;;;;;;;8229754;28;20408;-68
2021/10/25 05:57:55;;;;;;;33.58;12.38;;;;;;;;;;8228041;28;20053;-69
2021/10/25 06:02:08;;;;;;;23.83;10.80;;;;;;;;;;8227707;28;20396;-69
2021/10/25 06:06:18;;;;;;;35.00;14.57;;;;;;;;;;8228087;28;20512;-69
2021/10/25 06:10:27;;;;;;;33.33;12.73;;;;;;;;;;8228293;28;20119;-69
2021/10/25 06:14:37;;;;;;;32.92;12.65;;;;;;;;;;8239882;28;20345;-69
2021/10/25 06:18:56;;;;;;;32.78;11.00;;;;;;;;;;8263099;28;20079;-69
2021/10/25 06:23:13;;;;;;;;;;;;;;;;;;8243317;28;20456;-71
2021/10/25 06:27:19;;;;;;;39.55;20.42;;;;;;;;;;8243205;28;19997;-70
2021/10/25 06:31:26;;;;;;;22.27;10.23;;;;;;;;;;8229161;28;20333;-70
2021/10/25 06:35:34;;;;;;;16.17;8.52;;;;;;;;;;8260672;28;20472;-70
2021/10/25 06:40:10;;;;;;;27.42;11.48;;;;;;;;;;8248562;28;20503;-70
2021/10/25 06:44:15;;;;;;;15.45;7.13;;;;;;;;;;8259128;28;20370;-70
2021/10/25 06:48:24;;;;;;;19.30;8.75;;;;;;;;;;8242300;28;20357;-69
2021/10/25 06:52:30;;;;;;;16.50;8.68;;;;;;;;;;8227603;28;20049;-70
2021/10/25 06:56:35;;;;;;;23.13;9.68;;;;;;;;;;8242582;28;20460;-71
2021/10/25 07:00:42;;;;;;;34.90;14.77;;;;;;;;;;8242517;28;20348;-72
2021/10/25 07:04:48;;;;;;;116.22;29.88;;;;;;;;;;8242712;28;20391;-71
2021/10/25 07:08:54;;;;;;;72.60;26.40;;;;;;;;;;8241666;28;20472;-73
2021/10/25 07:12:59;;;;;;;53.55;20.73;;;;;;;;;;8242367;28;20372;-71
2021/10/25 07:17:18;;;;;;;52.85;19.58;;;;;;;;;;8241252;28;20750;-72
2021/10/25 07:21:36;;;;;;;36.00;17.15;;;;;;;;;;8244417;28;20486;-73
2021/10/25 08:01:34;;;;;;;17.88;7.00;;;;;;;;;;8229771;28;20063;-73
2021/10/25 08:05:55;;;;;;;30.48;10.18;;;;;;;;;;8241754;28;20490;-73
2021/10/25 08:10:06;;;;;;;16.83;7.57;;;;;;;;;;8242490;28;20425;-74
2021/10/25 08:14:14;;;;;;;15.88;6.28;;;;;;;;;;8240751;28;20056;-73
2021/10/25 08:18:35;;;;;;;18.70;7.10;;;;;;;;;;8259823;28;20472;-73
2021/10/25 08:22:42;;;;;;;11.55;4.70;;;;;;;;;;8240755;28;20075;-74
2021/10/25 08:26:49;;;;;;;12.20;4.80;;;;;;;;;;8225318;28;20391;-73
2021/10/25 08:30:56;;;;;;;8.27;3.80;;;;;;;;;;8210934;28;20459;-74
2021/10/25 08:35:21;;;;;;;10.75;4.07;;;;;;;;;;8218201;28;20358;-73
2021/10/25 08:40:05;;;;;;;9.23;4.13;;;;;;;;;;8155515;28;20069;-73
2021/10/25 08:44:15;;;;;;;10.20;4.53;;;;;;;;;;8206582;28;20468;-73
2021/10/25 08:48:26;;;;;;;10.57;4.35;;;;;;;;;;8178019;28;20480;-74
2021/10/25 08:52:32;;;;;;;11.70;5.13;;;;;;;;;;8264138;28;20425;-73
2021/10/25 08:56:41;;;;;;;9.05;3.85;;;;;;;;;;8246162;28;20364;-74
2021/10/25 09:00:53;;;;;;;7.30;3.90;;;;;;;;;;8230930;28;20472;-73
2021/10/25 09:05:17;;;;;;;10.50;4.90;;;;;;;;;;8246573;28;20613;-73
2021/10/25 09:09:22;;;;;;;18.45;6.25;;;;;;;;;;8261729;28;20379;-74
2021/10/25 09:13:29;;;;;;;9.45;4.80;;;;;;;;;;8244052;28;20071;-74
2021/10/25 09:17:43;;;;;;;9.75;4.63;;;;;;;;;;8228656;28;20071;-74
2021/10/25 09:22:18;;;;;;;9.50;3.97;;;;;;;;;;8167394;28;20461;-74
2021/10/25 09:26:29;;;;;;;11.55;4.35;;;;;;;;;;8229543;28;20103;-74
2021/10/25 09:30:39;;;;;;;7.82;3.00;;;;;;;;;;8211971;28;20068;-74
2021/10/25 09:34:48;;;;;;;10.68;4.70;;;;;;;;;;8230624;28;20459;-73
2021/10/25 09:39:36;;;;;;;9.90;3.30;;;;;;;;;;8229786;28;20456;-74
2021/10/25 09:52:51;;;;;;;10.18;4.18;;;;;;;;;;8233376;28;20437;-74
2021/10/25 09:57:09;;;;;;;10.85;3.42;;;;;;;;;;8228132;28;20464;-74
2021/10/25 10:01:36;;;;;;;9.30;3.27;;;;;;;;;;8212342;28;20356;-74
2021/10/25 10:05:44;;;;;;;12.73;3.80;;;;;;;;;;8227776;28;20488;-74
2021/10/25 10:09:50;;;;;;;8.98;3.05;;;;;;;;;;8227613;28;20518;-73
2021/10/25 10:13:58;;;;;;;8.70;3.35;;;;;;;;;;8229452;28;20453;-74
2021/10/25 10:18:23;;;;;;;8.57;4.00;;;;;;;;;;8244654;28;20356;-75
2021/10/25 10:23:00;;;;;;;10.98;4.68;;;;;;;;;;8217318;28;20491;-74
2021/10/25 10:27:13;;;;;;;7.93;3.42;;;;;;;;;;8243234;28;20444;-74
2021/10/25 10:31:26;;;;;;;5.40;1.73;;;;;;;;;;8243875;28;20421;-73
2021/10/25 10:35:51;;;;;;;4.75;2.40;;;;;;;;;;8246698;28;20452;-74
2021/10/25 10:40:18;;;;;;;4.78;2.10;;;;;;;;;;8243755;28;20053;-74
2021/10/25 10:45:01;;;;;;;6.75;2.28;;;;;;;;;;8232415;28;20345;-74
2021/10/25 10:49:58;;;;;;;6.10;2.00;;;;;;;;;;8226813;28;20457;-75
2021/10/25 10:54:10;;;;;;;7.00;2.67;;;;;;;;;;8258403;28;20098;-74
2021/10/25 11:02:49;;;;;;;4.90;2.15;;;;;;;;;;8241729;28;20447;-73
2021/10/25 11:07:04;;;;;;;5.82;2.30;;;;;;;;;;8244995;28;20444;-75
2021/10/25 11:11:16;;;;;;;27.77;13.35;;;;;;;;;;8241006;28;20040;-75
2021/10/25 11:15:21;;;;;;;11.35;3.28;;;;;;;;;;8241552;28;20045;-73
2021/10/25 11:19:26;;;;;;;12.52;8.73;;;;;;;;;;8242339;28;20463;-73
2021/10/25 11:23:43;;;;;;;5.38;2.75;;;;;;;;;;8225363;28;20514;-73
2021/10/25 11:27:50;;;;;;;5.93;2.75;;;;;;;;;;8242016;28;20452;-74
2021/10/25 11:32:13;;;;;;;5.07;2.70;;;;;;;;;;8241350;28;20348;-73
2021/10/25 11:36:21;;;;;;;5.15;2.17;;;;;;;;;;8241541;28;20472;-73
2021/10/25 11:40:27;;;;;;;5.65;2.60;;;;;;;;;;8258265;28;20471;-73
2021/10/25 11:44:33;;;;;;;4.85;2.38;;;;;;;;;;8258143;28;20460;-72
2021/10/25 11:48:38;;;;;;;4.32;2.45;;;;;;;;;;8259323;28;20050;-72
2021/10/25 11:53:08;;;;;;;8.82;3.42;;;;;;;;;;8258609;28;20460;-74
2021/10/25 11:57:13;;;;;;;10.30;3.30;;;;;;;;;;8258062;28;20053;-73
2021/10/25 12:01:19;;;;;;;8.45;2.85;;;;;;;;;;8240846;28;20049;-73
2021/10/25 12:05:36;;;;;;;7.72;2.60;;;;;;;;;;8239937;28;20462;-74
2021/10/25 12:09:41;;;;;;;7.80;2.60;;;;;;;;;;8257348;28;20138;-72
2021/10/25 12:13:46;;;;;;;7.20;2.72;;;;;;;;;;8256808;28;20467;-73
2021/10/25 12:17:55;;;;;;;12.05;4.05;;;;;;;;;;8257145;28;20476;-72
2021/10/25 12:22:20;;;;;;;5.35;2.80;;;;;;;;;;8256411;28;20064;-74
2021/10/25 12:26:25;;;;;;;5.53;2.72;;;;;;;;;;8258068;28;20049;-73
2021/10/25 12:30:31;;;;;;;7.55;3.33;;;;;;;;;;8258284;28;20454;-74
2021/10/25 12:34:55;;;;;;;7.32;2.70;;;;;;;;;;8241296;28;20613;-71
2021/10/25 12:39:00;;;;;;;13.82;4.03;;;;;;;;;;8240956;28;20375;-71
2021/10/25 12:43:08;;;;;;;10.40;3.05;;;;;;;;;;8257363;28;20476;-73
2021/10/25 12:47:19;;;;;;;11.80;5.00;;;;;;;;;;8257278;28;20457;-72
2021/10/25 12:51:40;;;;;;;13.90;5.95;;;;;;;;;;8239765;28;20075;-72
2021/10/25 12:55:56;;;;;;;11.32;5.68;;;;;;;;;;8239963;28;20071;-71
2021/10/25 13:00:15;;;;;;;12.85;3.90;;;;;;;;;;8258238;28;20130;-72
2021/10/25 13:04:22;;;;;;;11.73;4.53;;;;;;;;;;8240071;28;20468;-73
2021/10/25 13:08:27;;;;;;;7.40;3.75;;;;;;;;;;8255862;28;20451;-71
2021/10/25 13:12:32;;;;;;;42.55;19.40;;;;;;;;;;8240493;28;20037;-74
2021/10/25 13:16:42;;;;;;;14.52;6.75;;;;;;;;;;8222913;28;20457;-72
2021/10/25 13:20:48;;;;;;;21.05;10.68;;;;;;;;;;8222445;28;20373;-71
2021/10/25 13:24:53;;;;;;;11.30;6.05;;;;;;;;;;8223826;28;20399;-72
2021/10/25 13:28:59;;;;;;;7.80;4.38;;;;;;;;;;8221803;28;20056;-72
2021/10/25 13:33:04;;;;;;;7.40;3.35;;;;;;;;;;8227074;28;20456;-71
2021/10/25 13:37:09;;;;;;;14.10;6.05;;;;;;;;;;8229435;28;20328;-72
2021/10/25 13:41:14;;;;;;;11.45;3.45;;;;;;;;;;8229792;28;20037;-73
2021/10/25 13:45:20;;;;;;;8.70;3.38;;;;;;;;;;8232190;28;20067;-72
2021/10/25 13:49:25;;;;;;;11.55;4.75;;;;;;;;;;8230147;28;20472;-73
2021/10/25 13:53:30;;;;;;;8.18;3.53;;;;;;;;;;8228990;28;20469;-72
2021/10/25 13:57:38;;;;;;;8.15;3.05;;;;;;;;;;8227611;28;20478;-73
2021/10/25 14:01:44;;;;;;;8.38;4.20;;;;;;;;;;8227973;28;20452;-71
2021/10/25 14:05:52;;;;;;;10.82;4.30;;;;;;;;;;8229065;28;20408;-73
2021/10/25 14:10:03;;;;;;;16.35;6.43;;;;;;;;;;8229200;28;20326;-72
2021/10/25 14:14:16;;;;;;;13.43;6.40;;;;;;;;;;8230636;28;20108;-73
2021/10/25 14:18:21;;;;;;;9.45;4.70;;;;;;;;;;8260924;28;20056;-72
2021/10/25 14:22:26;;;;;;;10.40;3.53;;;;;;;;;;8262305;28;20348;-73
2021/10/25 14:26:32;;;;;;;17.60;4.18;;;;;;;;;;8241969;28;20409;-72
2021/10/25 14:30:37;;;;;;;9.82;2.80;;;;;;;;;;8259212;28;20356;-72
2021/10/25 14:34:43;;;;;;;21.08;9.90;;;;;;;;;;8243772;28;20052;-71
2021/10/25 14:38:57;;;;;;;22.85;11.15;;;;;;;;;;8260837;28;20489;-72
2021/10/25 14:43:10;;;;;;;25.83;11.80;;;;;;;;;;8260235;28;20103;-71
2021/10/25 14:47:26;;;;;;;34.03;15.48;;;;;;;;;;8259541;28;20395;-74
2021/10/25 14:56:03;;;;;;;28.10;10.63;;;;;;;;;;8245872;28;20452;-72
2021/10/25 15:00:09;;;;;;;17.55;5.55;;;;;;;;;;8243259;28;20045;-71
2021/10/25 15:04:16;;;;;;;12.10;4.57;;;;;;;;;;8242294;28;20468;-72
2021/10/25 15:08:23;;;;;;;8.80;3.83;;;;;;;;;;8259886;28;20367;-74
2021/10/25 15:12:28;;;;;;;11.70;4.45;;;;;;;;;;8242864;28;20040;-73
2021/10/25 15:16:53;;;;;;;18.50;6.43;;;;;;;;;;8259278;28;20116;-73
2021/10/25 15:20:59;;;;;;;20.90;8.50;;;;;;;;;;8241720;28;20452;-71
2021/10/25 15:25:07;;;;;;;20.30;8.82;;;;;;;;;;8242304;28;20108;-71
2021/10/25 15:29:13;;;;;;;21.45;10.05;;;;;;;;;;8241702;28;20367;-73
2021/10/25 15:33:18;;;;;;;26.67;9.55;;;;;;;;;;8259084;28;20071;-73
2021/10/25 15:37:27;;;;;;;17.00;7.78;;;;;;;;;;8259105;28;20491;-72
2021/10/25 15:41:32;;;;;;;22.58;7.80;;;;;;;;;;8243810;28;20391;-73
2021/10/25 15:45:37;;;;;;;36.88;9.85;;;;;;;;;;8258881;28;20347;-71
2021/10/25 15:49:44;;;;;;;26.27;8.30;;;;;;;;;;8240470;28;20582;-72
2021/10/25 15:53:49;;;;;;;22.52;8.80;;;;;;;;;;8260252;28;20703;-71
2021/10/25 15:57:56;;;;;;;25.80;8.90;;;;;;;;;;8224813;28;20502;-71
2021/10/25 16:02:03;;;;;;;20.70;7.18;;;;;;;;;;8257540;28;20349;-72
2021/10/25 16:06:09;;;;;;;14.18;6.03;;;;;;;;;;8255895;28;20502;-70
2021/10/25 16:10:15;;;;;;;12.27;5.75;;;;;;;;;;8241204;28;20480;-71
2021/10/25 16:14:21;;;;;;;20.05;7.43;;;;;;;;;;8257525;28;20475;-70
2021/10/25 16:18:26;;;;;;;17.52;8.10;;;;;;;;;;8257339;28;20331;-71
2021/10/25 16:22:33;;;;;;;18.55;8.20;;;;;;;;;;8258489;28;20403;-70
2021/10/25 16:26:40;;;;;;;19.73;8.50;;;;;;;;;;8257611;28;20075;-71
2021/10/25 16:30:45;;;;;;;19.13;7.00;;;;;;;;;;8242813;28;20355;-71
2021/10/25 16:34:50;;;;;;;16.88;7.80;;;;;;;;;;8257192;28;20448;-71
2021/10/25 16:38:56;;;;;;;23.20;8.50;;;;;;;;;;8255586;28;20652;-72
2021/10/25 16:43:01;;;;;;;26.58;8.57;;;;;;;;;;8239936;28;20394;-70
2021/10/25 16:47:08;;;;;;;42.17;14.70;;;;;;;;;;8259449;28;20060;-70
2021/10/25 16:51:17;;;;;;;29.58;12.88;;;;;;;;;;8256286;28;20326;-71
2021/10/25 16:55:30;;;;;;;38.37;18.13;;;;;;;;;;8255849;28;20441;-71
2021/10/25 17:04:22;;;;;;;74.43;25.70;;;;;;;;;;8242109;28;20071;-70
2021/10/25 17:12:52;;;;;;;64.68;19.77;;;;;;;;;;8239910;28;20037;-71
2021/10/25 17:16:56;;;;;;;45.03;14.77;;;;;;;;;;8263556;28;20377;-70
2021/10/25 17:21:04;;;;;;;45.40;15.98;;;;;;;;;;8263283;28;20041;-71
2021/10/25 17:25:09;;;;;;;71.20;25.85;;;;;;;;;;8263396;28;20399;-71
2021/10/25 17:29:14;;;;;;;75.68;28.58;;;;;;;;;;8262039;28;20349;-71
2021/10/25 17:33:18;;;;;;;90.82;33.63;;;;;;;;;;8244333;28;20456;-70
2021/10/25 17:37:23;;;;;;;102.25;36.90;;;;;;;;;;8226966;28;20037;-73
2021/10/25 17:41:32;;;;;;;90.60;32.65;;;;;;;;;;8245581;28;20103;-70
2021/10/25 17:45:37;;;;;;;90.35;30.40;;;;;;;;;;8263386;28;20395;-71
2021/10/25 17:49:44;;;;;;;77.50;28.30;;;;;;;;;;8246249;28;20075;-70
2021/10/25 17:53:49;;;;;;;83.32;29.85;;;;;;;;;;8262067;28;20465;-71
2021/10/25 17:57:54;;;;;;;82.05;25.75;;;;;;;;;;8261777;28;20633;-72
2021/10/25 18:02:01;;;;;;;71.88;26.00;;;;;;;;;;8261639;28;20479;-70
2021/10/25 18:06:07;;;;;;;64.30;25.58;;;;;;;;;;8262096;28;20460;-71
2021/10/25 18:10:13;;;;;;;66.75;25.88;;;;;;;;;;8261872;28;20049;-71
2021/10/25 18:14:18;;;;;;;72.68;29.58;;;;;;;;;;8243806;28;20053;-71
2021/10/25 18:18:23;;;;;;;66.18;26.58;;;;;;;;;;8243859;28;20514;-71
2021/10/25 18:22:29;;;;;;;84.88;32.78;;;;;;;;;;8244585;28;20498;-72
2021/10/25 18:26:37;;;;;;;94.80;37.10;;;;;;;;;;8244452;28;20064;-70
2021/10/25 18:30:42;;;;;;;73.00;28.27;;;;;;;;;;8244470;28;20075;-69
2021/10/25 18:34:47;;;;;;;72.68;30.50;;;;;;;;;;8261263;28;20405;-71
2021/10/25 18:38:54;;;;;;;102.93;38.55;;;;;;;;;;8226987;28;20376;-70
2021/10/25 18:43:02;;;;;;;102.20;40.53;;;;;;;;;;8242480;28;20498;-70
2021/10/25 18:47:08;;;;;;;89.55;35.22;;;;;;;;;;8260769;28;20045;-70
2021/10/25 18:51:16;;;;;;;72.57;28.88;;;;;;;;;;8243541;28;20387;-74
2021/10/25 18:55:21;;;;;;;83.57;33.70;;;;;;;;;;8260537;28;20049;-72
2021/10/25 18:59:28;;;;;;;92.85;33.95;;;;;;;;;;8202033;28;20367;-70
2021/10/25 19:03:34;;;;;;;84.43;32.42;;;;;;;;;;8259823;28;20713;-71
2021/10/25 19:07:43;;;;;;;80.13;30.35;;;;;;;;;;8260740;28;20371;-70
2021/10/25 19:11:48;;;;;;;87.82;33.70;;;;;;;;;;8259797;28;20045;-70
2021/10/25 19:15:53;;;;;;;85.35;31.60;;;;;;;;;;8259691;28;20076;-70
2021/10/25 19:19:59;;;;;;;104.28;39.80;;;;;;;;;;8241798;28;20368;-71
2021/10/25 19:24:08;;;;;;;106.20;40.53;;;;;;;;;;8225941;28;20660;-71
2021/10/25 19:28:13;;;;;;;113.32;40.03;;;;;;;;;;8241559;28;20452;-70
2021/10/25 19:32:19;;;;;;;112.70;41.20;;;;;;;;;;8241834;28;20509;-70
2021/10/25 19:36:24;;;;;;;112.15;37.65;;;;;;;;;;8241403;28;20057;-69
2021/10/25 19:40:29;;;;;;;117.95;43.47;;;;;;;;;;8242524;28;20448;-70
2021/10/25 19:44:34;;;;;;;115.93;42.15;;;;;;;;;;8241717;28;20452;-71
2021/10/25 19:48:43;;;;;;;112.97;43.67;;;;;;;;;;8241140;28;20380;-70
2021/10/25 19:52:50;;;;;;;103.95;40.10;;;;;;;;;;8260005;28;20493;-70
2021/10/25 19:56:55;;;;;;;119.55;43.78;;;;;;;;;;8242718;28;20349;-70
2021/10/25 20:01:00;;;;;;;92.22;37.30;;;;;;;;;;8259915;28;20482;-69
2021/10/25 20:05:06;;;;;;;97.93;39.22;;;;;;;;;;8257810;28;20380;-70
2021/10/25 20:09:11;;;;;;;96.50;34.55;;;;;;;;;;8257860;28;20468;-72
2021/10/25 20:13:17;;;;;;;84.82;30.88;;;;;;;;;;8239827;28;20063;-71
2021/10/25 20:17:22;;;;;;;102.85;41.80;;;;;;;;;;8257364;28;21382;-69
2021/10/25 20:21:28;;;;;;;147.95;46.60;;;;;;;;;;8258044;28;20360;-70
2021/10/25 20:25:33;;;;;;;134.55;45.28;;;;;;;;;;8240444;28;20380;-70
2021/10/25 20:29:38;;;;;;;86.45;32.42;;;;;;;;;;8241408;28;20448;-70
2021/10/25 20:33:44;;;;;;;81.32;30.00;;;;;;;;;;8258495;28;20496;-71
2021/10/25 20:37:49;;;;;;;85.75;31.85;;;;;;;;;;8257164;28;20465;-71
2021/10/25 20:41:54;;;;;;;91.22;35.83;;;;;;;;;;8240006;28;20488;-69
2021/10/25 20:45:59;;;;;;;123.22;44.15;;;;;;;;;;8256943;28;20377;-70
2021/10/25 20:50:05;;;;;;;95.32;37.67;;;;;;;;;;8259045;28;20514;-70
2021/10/25 20:54:12;;;;;;;106.88;39.95;;;;;;;;;;8256557;28;20053;-70
2021/10/25 20:58:18;;;;;;;119.13;41.50;;;;;;;;;;8240108;28;20383;-71
2021/10/25 21:02:23;;;;;;;82.40;32.08;;;;;;;;;;8241439;28;20356;-69
2021/10/25 21:06:29;;;;;;;84.93;31.92;;;;;;;;;;8238784;28;20375;-69
2021/10/25 21:10:34;;;;;;;92.95;35.05;;;;;;;;;;8257397;28;20045;-69
2021/10/25 21:14:39;;;;;;;84.40;32.70;;;;;;;;;;8257324;28;20487;-69
2021/10/25 21:18:44;;;;;;;78.45;29.77;;;;;;;;;;8257380;28;20067;-69
2021/10/25 21:22:49;;;;;;;77.30;27.67;;;;;;;;;;8239460;28;20376;-72
2021/10/25 21:26:54;;;;;;;71.82;22.63;;;;;;;;;;8256750;28;20511;-72
2021/10/25 21:30:59;;;;;;;72.72;25.60;;;;;;;;;;8239887;28;20449;-72
2021/10/25 21:35:06;;;;;;;87.70;31.83;;;;;;;;;;8239469;28;20461;-71
2021/10/25 21:39:11;;;;;;;63.78;24.70;;;;;;;;;;8257199;28;20041;-70
2021/10/25 21:43:16;;;;;;;73.35;27.42;;;;;;;;;;8223080;28;20456;-70
2021/10/25 21:47:21;;;;;;;81.13;30.60;;;;;;;;;;8255853;28;20399;-70
2021/10/25 21:51:26;;;;;;;88.28;32.95;;;;;;;;;;8256605;28;20041;-71
2021/10/25 21:55:32;;;;;;;94.05;33.25;;;;;;;;;;8260544;28;20059;-71
2021/10/25 21:59:37;;;;;;;83.38;32.85;;;;;;;;;;8262036;28;20376;-70
2021/10/25 22:03:42;;;;;;;80.65;28.70;;;;;;;;;;8261904;28;20441;-70
2021/10/25 22:07:47;;;;;;;78.72;32.55;;;;;;;;;;8261694;28;20453;-71
2021/10/25 22:11:52;;;;;;;166.02;42.78;;;;;;;;;;8262226;28;20030;-71
2021/10/25 22:15:58;;;;;;;117.47;36.35;;;;;;;;;;8261193;28;20071;-71
2021/10/25 22:20:06;;;;;;;110.50;36.47;;;;;;;;;;8262252;28;20483;-71
2021/10/25 22:24:11;;;;;;;110.65;37.63;;;;;;;;;;8261491;28;20468;-70
2021/10/25 22:28:17;;;;;;;90.57;31.55;;;;;;;;;;8262991;28;20368;-71
2021/10/25 22:32:24;;;;;;;91.10;32.92;;;;;;;;;;8260705;28;20345;-70
2021/10/25 22:36:33;;;;;;;91.93;30.20;;;;;;;;;;8260756;28;20479;-71
2021/10/25 22:40:38;;;;;;;80.22;24.33;;;;;;;;;;8263687;28;20041;-70
2021/10/25 22:44:43;;;;;;;64.13;22.58;;;;;;;;;;8259695;28;20067;-72
2021/10/25 22:48:48;;;;;;;170.60;56.40;;;;;;;;;;8243276;28;20378;-70
2021/10/25 22:52:54;;;;;;;116.13;38.33;;;;;;;;;;8261401;28;20155;-70
2021/10/25 22:57:00;;;;;;;117.10;37.35;;;;;;;;;;8260684;28;20371;-70
2021/10/25 23:01:05;;;;;;;246.93;63.65;;;;;;;;;;8260184;28;20464;-70
2021/10/25 23:05:12;;;;;;;222.82;54.92;;;;;;;;;;8241180;28;20053;-70
2021/10/25 23:09:17;;;;;;;178.10;50.88;;;;;;;;;;8242314;28;20476;-71
2021/10/25 23:13:24;;;;;;;519.30;141.55;;;;;;;;;;8260404;28;20391;-70
2021/10/25 23:17:30;;;;;;;111.15;36.85;;;;;;;;;;8242116;28;20056;-70
2021/10/25 23:21:35;;;;;;;68.55;24.70;;;;;;;;;;8259718;28;20053;-70
2021/10/25 23:25:40;;;;;;;105.22;34.83;;;;;;;;;;8260305;28;20372;-70
2021/10/25 23:29:45;;;;;;;75.03;26.23;;;;;;;;;;8260972;28;20368;-71
2021/10/25 23:33:50;;;;;;;74.22;25.52;;;;;;;;;;8241542;28;20338;-70
2021/10/25 23:37:56;;;;;;;69.55;24.10;;;;;;;;;;8258475;28;20368;-71
2021/10/25 23:42:01;;;;;;;59.75;22.80;;;;;;;;;;8261280;28;20041;-70
2021/10/25 23:46:06;;;;;;;53.30;19.90;;;;;;;;;;8258001;28;20737;-70
2021/10/25 23:50:11;;;;;;;51.60;21.45;;;;;;;;;;8241097;28;20063;-70
2021/10/25 23:54:17;;;;;;;54.72;19.95;;;;;;;;;;8258214;28;20103;-70
2021/10/25 23:58:23;;;;;;;51.67;18.98;;;;;;;;;;8242350;28;20058;-70
